Marathon, Iowa
Current Conditions -  °F | °C
As of 4:35 AM on Monday 22 Dec 2014 (Local Time) from KSLB Reporting Station
Haze Haze  
Wind Chill: 30°   Ceiling: 200
Heat Index: 39°   Visibility: 0.75mi
Dew Point: 39°   Wind: 17mph
Humidity: 100%   Direction: 160°SSE
Pressure: 29.56"   Gusts: NA
Location:  42.86°N, 94.98°W
Report Text: KSLB 221035Z AUTO 16015KT 3/4SM BR OVC002 04/04 A2956 RMK AO2
Loading
Personal Weather Stations






























Interactive Weather Map New forecast layout! Learn more

10-Day Weather Forecast

Advertisements
Track Severe Weather on mobile